Bright Sailing — 9LU2534 — position and weather

sailwx.info

Track history (hours):
 
Tides and Currents Weather Stations Pressure Air Temp Water Temp Dewpoint Dewpoint Depression Visibility Wind Speed Wind Dir Waves Ship Positions

Bright Sailing

Last reported at 2017-Sep-28 14:58 UTC. Time now 2017-Oct-22 17:15 UTC.
Position N 34°59' E 139°32'.
Warning: this ship's position is 24 days out of date.

Length 76 m; draft 4.5 m.

Type: Cargo ship. MMSI: 667001731.

Date/timePositionNaut miles runAvg speedWind from/ knotsBaromVisibWave heightAir tempDewpointWater temp
2017-Sep-28 14:58N 34°59' E 139°32'4 8.2
2017-Sep-28 14:30N 35°02' E 139°36'5 8.6
2017-Sep-28 13:58N 35°05' E 139°40'4 9.1
2017-Sep-28 13:30N 35°08' E 139°44'5 9.2
2017-Sep-28 13:00N 35°12' E 139°46'4 8.5
2017-Sep-28 12:30N 35°16' E 139°45'4 8.5
2017-Sep-28 12:00N 35°20' E 139°43'4 8.6
2017-Sep-28 11:30N 35°24' E 139°43'5 9.3
2017-Sep-28 11:00N 35°27' E 139°47'5 9.5
2017-Sep-28 10:30N 35°30' E 139°52'11 8.8
2017-Sep-28 09:18N 35°39' E 139°59'3 0.1
2017-Sep-26 20:21N 35°36' E 139°58'0 0.0
2017-Sep-26 12:40N 35°36' E 139°58'0 0.0
2017-Sep-26 03:24N 35°36' E 139°58'6 4.0
2017-Sep-26 01:56N 35°31' E 139°54'6 8.8
2017-Sep-26 01:13N 35°27' E 139°49'2 8.7
2017-Sep-26 01:00N 35°25' E 139°47'4 8.6
2017-Sep-26 00:30N 35°21' E 139°45'4 7.9
2017-Sep-26 00:00N 35°17' E 139°45'4 8.6
2017-Sep-25 23:30N 35°13' E 139°47'4 8.9
2017-Sep-25 23:00N 35°09' E 139°46'5 9.4
2017-Sep-25 22:30N 35°04' E 139°45'5 9.6
2017-Sep-25 22:00N 34°60' E 139°43'4 8.2
2017-Sep-25 21:28N 34°55' E 139°44'5 7.8
2017-Sep-25 20:53N 34°52' E 139°48'6 0.1
2017-Sep-24 01:27N 34°57' E 139°44'4 9.8
2017-Sep-24 01:00N 35°01' E 139°44'5 9.0
2017-Sep-24 00:30N 35°05' E 139°44'5 9.3
2017-Sep-24 00:00N 35°10' E 139°46'5 9.8
2017-Sep-23 23:31N 35°15' E 139°46'510.3
2017-Sep-23 23:00N 35°19' E 139°43'5 9.5
2017-Sep-23 22:31N 35°24' E 139°43'5 9.7
2017-Sep-23 22:01N 35°27' E 139°48'5 9.8
2017-Sep-23 21:31N 35°30' E 139°52'5 9.5
2017-Sep-23 21:01N 35°32' E 139°58'  
2017-Sep-21 14:41N 35°33' E 140°02'0 0.1
2017-Sep-21 14:29N 35°33' E 140°02'0 0.0
2017-Sep-21 13:56N 35°33' E 140°02'0 0.0
2017-Sep-21 12:08N 35°33' E 140°02'0 0.0
2017-Sep-21 11:05N 35°33' E 140°02'0 0.0
2017-Sep-21 10:50N 35°33' E 140°02'0 0.0
2017-Sep-21 10:23N 35°33' E 140°02'0 0.0
2017-Sep-21 06:31N 35°33' E 140°02'3 5.9
2017-Sep-21 06:03N 35°32' E 139°59'1 8.8
2017-Sep-21 05:56N 35°32' E 139°58'4 8.8
2017-Sep-21 05:30N 35°30' E 139°54'6 8.8
2017-Sep-21 04:51N 35°26' E 139°48'3 9.1
2017-Sep-21 04:30N 35°24' E 139°46'5 9.5
2017-Sep-21 04:00N 35°19' E 139°44'4 8.9
2017-Sep-21 03:30N 35°15' E 139°47'4 8.5
2017-Sep-21 03:00N 35°11' E 139°47'4 8.3
2017-Sep-21 02:30N 35°07' E 139°45'4 8.1
2017-Sep-21 02:00N 35°04' E 139°42'4 8.4
2017-Sep-21 01:30N 35°01' E 139°39'5 9.4
2017-Sep-21 00:57N 34°58' E 139°34'  
Track history (hours):
 
Tides and Currents Weather Stations Pressure Air Temp Water Temp Dewpoint Dewpoint Depression Visibility Wind Speed Wind Dir Waves Ship Positions

Bright Sailing

Last reported at 2017-Sep-28 14:58 UTC. Time now 2017-Oct-22 17:15 UTC.
Position N 34°59' E 139°32'.
Warning: this ship's position is 24 days out of date.

Length 76 m; draft 4.5 m.

Type: Cargo ship. MMSI: 667001731.

Date/timePositionNaut miles runAvg speedWind from/ knotsBaromVisibWave heightAir tempDewpointWater temp
2017-Sep-28 14:58N 34°59' E 139°32'4 8.2
2017-Sep-28 14:30N 35°02' E 139°36'5 8.6
2017-Sep-28 13:58N 35°05' E 139°40'4 9.1
2017-Sep-28 13:30N 35°08' E 139°44'5 9.2
2017-Sep-28 13:00N 35°12' E 139°46'4 8.5
2017-Sep-28 12:30N 35°16' E 139°45'4 8.5
2017-Sep-28 12:00N 35°20' E 139°43'4 8.6
2017-Sep-28 11:30N 35°24' E 139°43'5 9.3
2017-Sep-28 11:00N 35°27' E 139°47'5 9.5
2017-Sep-28 10:30N 35°30' E 139°52'11 8.8
2017-Sep-28 09:18N 35°39' E 139°59'3 0.1
2017-Sep-26 20:21N 35°36' E 139°58'0 0.0
2017-Sep-26 12:40N 35°36' E 139°58'0 0.0
2017-Sep-26 03:24N 35°36' E 139°58'6 4.0
2017-Sep-26 01:56N 35°31' E 139°54'6 8.8
2017-Sep-26 01:13N 35°27' E 139°49'2 8.7
2017-Sep-26 01:00N 35°25' E 139°47'4 8.6
2017-Sep-26 00:30N 35°21' E 139°45'4 7.9
2017-Sep-26 00:00N 35°17' E 139°45'4 8.6
2017-Sep-25 23:30N 35°13' E 139°47'4 8.9
2017-Sep-25 23:00N 35°09' E 139°46'5 9.4
2017-Sep-25 22:30N 35°04' E 139°45'5 9.6
2017-Sep-25 22:00N 34°60' E 139°43'4 8.2
2017-Sep-25 21:28N 34°55' E 139°44'5 7.8
2017-Sep-25 20:53N 34°52' E 139°48'6 0.1
2017-Sep-24 01:27N 34°57' E 139°44'4 9.8
2017-Sep-24 01:00N 35°01' E 139°44'5 9.0
2017-Sep-24 00:30N 35°05' E 139°44'5 9.3
2017-Sep-24 00:00N 35°10' E 139°46'5 9.8
2017-Sep-23 23:31N 35°15' E 139°46'510.3
2017-Sep-23 23:00N 35°19' E 139°43'5 9.5
2017-Sep-23 22:31N 35°24' E 139°43'5 9.7
2017-Sep-23 22:01N 35°27' E 139°48'5 9.8
2017-Sep-23 21:31N 35°30' E 139°52'5 9.5
2017-Sep-23 21:01N 35°32' E 139°58'  
2017-Sep-21 14:41N 35°33' E 140°02'0 0.1
2017-Sep-21 14:29N 35°33' E 140°02'0 0.0
2017-Sep-21 13:56N 35°33' E 140°02'0 0.0
2017-Sep-21 12:08N 35°33' E 140°02'0 0.0
2017-Sep-21 11:05N 35°33' E 140°02'0 0.0
2017-Sep-21 10:50N 35°33' E 140°02'0 0.0
2017-Sep-21 10:23N 35°33' E 140°02'0 0.0
2017-Sep-21 06:31N 35°33' E 140°02'3 5.9
2017-Sep-21 06:03N 35°32' E 139°59'1 8.8
2017-Sep-21 05:56N 35°32' E 139°58'4 8.8
2017-Sep-21 05:30N 35°30' E 139°54'6 8.8
2017-Sep-21 04:51N 35°26' E 139°48'3 9.1
2017-Sep-21 04:30N 35°24' E 139°46'5 9.5
2017-Sep-21 04:00N 35°19' E 139°44'4 8.9
2017-Sep-21 03:30N 35°15' E 139°47'4 8.5
2017-Sep-21 03:00N 35°11' E 139°47'4 8.3
2017-Sep-21 02:30N 35°07' E 139°45'4 8.1
2017-Sep-21 02:00N 35°04' E 139°42'4 8.4
2017-Sep-21 01:30N 35°01' E 139°39'5 9.4
2017-Sep-21 00:57N 34°58' E 139°34'  

Dump ship's entire track history